createdAt,value
2019-03-10T00:00:32.458Z,61.63
2019-03-10T00:02:59.715Z,62.15
2019-03-10T00:05:27.373Z,62.16
2019-03-10T00:07:56.408Z,62.11
2019-03-10T00:10:23.184Z,62.08
2019-03-10T00:12:50.667Z,62.38
2019-03-10T00:15:17.791Z,62.46
2019-03-10T00:17:44.616Z,62.60
2019-03-10T00:20:11.753Z,62.48
2019-03-10T00:22:39.131Z,62.67
2019-03-10T00:25:09.114Z,62.62
2019-03-10T00:27:36.189Z,62.68
2019-03-10T00:30:15.302Z,62.71
2019-03-10T00:32:42.383Z,62.81
2019-03-10T00:35:09.607Z,62.88
2019-03-10T00:37:36.439Z,62.91
2019-03-10T00:40:44.026Z,63.16
2019-03-10T00:43:51.897Z,63.21
2019-03-10T00:46:56.831Z,63.19
2019-03-10T00:49:52.132Z,63.15
2019-03-10T00:52:30.418Z,63.39
2019-03-10T00:54:57.629Z,63.57
2019-03-10T00:57:24.470Z,63.69
2019-03-10T00:59:51.646Z,63.89
2019-03-10T01:02:18.589Z,64.15
2019-03-10T01:04:45.516Z,64.24
2019-03-10T01:07:12.489Z,64.39
2019-03-10T01:09:39.752Z,64.51
2019-03-10T01:12:07.528Z,64.69
2019-03-10T01:14:34.897Z,65.07
2019-03-10T01:17:02.101Z,65.27
2019-03-10T01:19:31.968Z,65.41
2019-03-10T01:21:59.637Z,65.70
2019-03-10T01:24:26.735Z,66.06
2019-03-10T01:26:53.868Z,66.18
2019-03-10T01:29:21.285Z,66.51
2019-03-10T01:31:59.427Z,66.67
2019-03-10T01:34:44.552Z,66.77
2019-03-10T01:37:11.773Z,67.00
2019-03-10T01:39:38.977Z,66.59
2019-03-10T01:42:06.924Z,66.62
2019-03-10T01:44:33.765Z,66.09
2019-03-10T01:47:06.893Z,65.63
2019-03-10T01:49:37.031Z,65.26
2019-03-10T01:52:04.011Z,65.01
2019-03-10T01:54:31.091Z,65.01
2019-03-10T01:56:58.954Z,64.93
2019-03-10T01:59:26.242Z,64.69
2019-03-10T02:01:53.019Z,64.57
2019-03-10T02:04:19.869Z,64.46
2019-03-10T02:06:47.952Z,64.42
2019-03-10T02:09:14.752Z,64.34
2019-03-10T02:11:41.863Z,64.36
2019-03-10T02:14:08.718Z,64.38
2019-03-10T02:16:35.845Z,64.39
2019-03-10T02:19:03.127Z,64.37
2019-03-10T02:21:30.454Z,64.39
2019-03-10T02:23:57.189Z,64.33
2019-03-10T02:26:23.937Z,64.09
2019-03-10T02:28:50.692Z,64.06
2019-03-10T02:31:17.639Z,64.00
2019-03-10T02:33:44.444Z,64.09
2019-03-10T02:36:11.298Z,63.95
2019-03-10T02:38:38.469Z,63.90
2019-03-10T02:41:05.378Z,63.96
2019-03-10T02:43:32.210Z,64.03
2019-03-10T02:45:59.456Z,64.22
2019-03-10T02:48:26.597Z,64.30
2019-03-10T02:50:53.549Z,64.57
2019-03-10T02:53:20.317Z,64.66
2019-03-10T02:55:47.081Z,64.70
2019-03-10T02:58:13.803Z,64.90
2019-03-10T03:00:40.888Z,64.91
2019-03-10T03:03:08.039Z,64.66
2019-03-10T03:05:35.191Z,64.65
2019-03-10T03:08:01.985Z,64.84
2019-03-10T03:10:28.802Z,65.09
2019-03-10T03:12:55.934Z,64.74
2019-03-10T03:15:23.066Z,64.53
2019-03-10T03:17:50.217Z,64.11
2019-03-10T03:20:17.076Z,63.76
2019-03-10T03:22:43.943Z,63.59
2019-03-10T03:25:11.773Z,63.77
2019-03-10T03:27:39.025Z,64.06
2019-03-10T03:30:14.424Z,64.14
2019-03-10T03:32:41.836Z,64.33
2019-03-10T03:35:51.665Z,64.44
2019-03-10T03:38:30.368Z,64.60
2019-03-10T03:41:10.863Z,65.12
2019-03-10T03:43:37.856Z,65.35
2019-03-10T03:46:05.013Z,65.28
2019-03-10T03:48:32.084Z,65.32
2019-03-10T03:50:59.351Z,65.23
2019-03-10T03:53:26.241Z,65.54
2019-03-10T03:55:53.080Z,65.65
2019-03-10T03:58:20.096Z,65.87
2019-03-10T04:00:48.749Z,66.43
2019-03-10T04:03:15.522Z,66.60
2019-03-10T04:05:42.789Z,66.96
2019-03-10T04:08:09.636Z,67.14
2019-03-10T04:10:36.375Z,67.59
2019-03-10T04:13:03.492Z,67.97
2019-03-10T04:15:30.454Z,68.21
2019-03-10T04:17:57.724Z,68.51
2019-03-10T04:20:24.650Z,68.87
2019-03-10T04:22:51.493Z,68.81
2019-03-10T04:25:18.372Z,69.63
2019-03-10T04:27:45.452Z,69.90
2019-03-10T04:30:13.139Z,70.08
2019-03-10T04:32:40.258Z,71.10
2019-03-10T04:35:07.024Z,71.91
2019-03-10T04:37:34.560Z,72.53
2019-03-10T04:40:01.531Z,73.59
2019-03-10T04:42:28.347Z,74.04
2019-03-10T04:44:55.229Z,74.24
2019-03-10T04:47:22.334Z,74.62
2019-03-10T04:49:49.097Z,74.72
2019-03-10T04:52:16.151Z,74.75
2019-03-10T04:54:51.856Z,75.03
2019-03-10T04:57:20.484Z,74.99
2019-03-10T04:59:47.649Z,74.74
2019-03-10T05:02:14.560Z,74.75
2019-03-10T05:04:41.337Z,75.05
2019-03-10T05:07:08.474Z,75.41
2019-03-10T05:09:35.353Z,75.17
2019-03-10T05:12:02.187Z,75.67
2019-03-10T05:14:29.233Z,76.18
2019-03-10T05:16:56.448Z,76.23
2019-03-10T05:19:23.675Z,76.14
2019-03-10T05:21:51.122Z,76.30
2019-03-10T05:24:18.034Z,76.33
2019-03-10T05:26:45.192Z,76.22
2019-03-10T05:29:12.305Z,76.51
2019-03-10T05:31:39.247Z,76.69
2019-03-10T05:34:06.532Z,76.39
2019-03-10T05:36:33.252Z,76.29
2019-03-10T05:39:00.231Z,76.41
2019-03-10T05:41:26.970Z,76.60
2019-03-10T05:43:53.793Z,76.68
2019-03-10T05:46:20.919Z,76.69
2019-03-10T05:48:47.661Z,77.03
2019-03-10T05:51:15.684Z,77.18
2019-03-10T05:53:43.133Z,77.28
2019-03-10T05:56:10.152Z,77.27
2019-03-10T05:58:36.911Z,77.29
2019-03-10T06:01:03.871Z,77.44
2019-03-10T06:03:30.719Z,77.72
2019-03-10T06:05:57.685Z,77.55
2019-03-10T06:08:24.799Z,77.96
2019-03-10T06:10:51.847Z,78.22
2019-03-10T06:13:18.681Z,78.10
2019-03-10T06:15:45.728Z,78.14
2019-03-10T06:18:13.975Z,77.96
2019-03-10T06:20:41.143Z,78.54
2019-03-10T06:23:07.868Z,78.65
2019-03-10T06:25:35.199Z,78.59
2019-03-10T06:28:02.239Z,78.67
2019-03-10T06:30:29.407Z,78.68
2019-03-10T06:32:56.142Z,79.45
2019-03-10T06:35:22.944Z,82.37
2019-03-10T06:37:49.867Z,79.88
2019-03-10T06:40:16.638Z,78.51
2019-03-10T06:42:43.848Z,80.50
2019-03-10T06:45:10.821Z,81.32
2019-03-10T06:47:37.597Z,77.17
2019-03-10T06:50:09.213Z,77.28
2019-03-10T06:52:36.158Z,76.58
2019-03-10T06:55:03.574Z,76.76
2019-03-10T06:57:30.350Z,79.45
2019-03-10T06:59:57.592Z,77.74
2019-03-10T07:02:24.435Z,77.63
2019-03-10T07:04:51.701Z,77.25
2019-03-10T07:07:18.460Z,76.96
2019-03-10T07:09:45.419Z,78.04
2019-03-10T07:12:12.570Z,78.47
2019-03-10T07:14:39.926Z,78.43
2019-03-10T07:17:07.105Z,79.52
2019-03-10T07:19:33.914Z,78.47
2019-03-10T07:22:01.371Z,79.31
2019-03-10T07:24:28.776Z,78.79
2019-03-10T07:26:55.552Z,78.82
2019-03-10T07:29:27.860Z,79.09
2019-03-10T07:31:59.582Z,79.00
2019-03-10T07:34:26.755Z,78.50
2019-03-10T07:36:53.961Z,78.21
2019-03-10T07:39:20.791Z,78.08
2019-03-10T07:41:58.261Z,77.91
2019-03-10T07:44:25.290Z,78.42
2019-03-10T07:46:58.537Z,76.53
2019-03-10T07:49:27.571Z,77.42
2019-03-10T07:51:56.803Z,77.19
2019-03-10T07:54:25.800Z,78.37
2019-03-10T07:57:05.079Z,77.85
2019-03-10T07:59:33.921Z,77.85
2019-03-10T08:02:03.382Z,76.54
2019-03-10T08:04:32.169Z,76.37
2019-03-10T08:07:18.019Z,76.42
2019-03-10T08:09:55.555Z,76.38
2019-03-10T08:12:41.085Z,76.36
2019-03-10T08:15:16.009Z,76.16
2019-03-10T08:18:01.520Z,76.40
2019-03-10T08:20:30.419Z,76.81
2019-03-10T08:22:59.379Z,76.79
2019-03-10T08:25:36.885Z,77.10
2019-03-10T08:28:23.544Z,76.85
2019-03-10T08:30:56.088Z,76.75
2019-03-10T08:33:25.463Z,76.47
2019-03-10T08:35:54.885Z,76.12
2019-03-10T08:38:29.605Z,76.14
2019-03-10T08:41:15.039Z,76.44
2019-03-10T08:43:44.097Z,76.26
2019-03-10T08:46:13.087Z,76.63
2019-03-10T08:48:58.234Z,77.14
2019-03-10T08:51:44.529Z,77.72
2019-03-10T08:54:13.246Z,76.87
2019-03-10T08:56:47.772Z,76.43
2019-03-10T08:59:16.655Z,76.17
2019-03-10T09:01:46.878Z,75.98
2019-03-10T09:04:15.921Z,76.02
2019-03-10T09:06:56.491Z,75.96
2019-03-10T09:09:28.258Z,75.38
2019-03-10T09:12:11.989Z,75.21
2019-03-10T09:14:52.737Z,74.46
2019-03-10T09:17:27.063Z,74.30
2019-03-10T09:19:56.455Z,74.33
2019-03-10T09:22:31.545Z,75.05
2019-03-10T09:25:18.208Z,74.69
2019-03-10T09:28:03.624Z,74.89
2019-03-10T09:30:51.882Z,74.71
2019-03-10T09:33:26.799Z,74.37
2019-03-10T09:35:55.806Z,75.12
2019-03-10T09:38:33.829Z,75.27
2019-03-10T09:41:01.622Z,75.63
2019-03-10T09:43:28.736Z,76.09
2019-03-10T09:46:00.286Z,76.40
2019-03-10T09:48:41.190Z,76.45
2019-03-10T09:51:25.355Z,75.70
2019-03-10T09:53:57.215Z,75.20
2019-03-10T09:56:44.569Z,74.90
2019-03-10T09:59:13.322Z,74.70
2019-03-10T10:01:42.097Z,73.79
2019-03-10T10:04:13.721Z,73.32
2019-03-10T10:06:51.691Z,72.22
2019-03-10T10:09:20.965Z,72.17
2019-03-10T10:11:53.979Z,72.37
2019-03-10T10:14:29.970Z,72.06
2019-03-10T10:17:13.926Z,70.87
2019-03-10T10:19:43.932Z,69.92
2019-03-10T10:22:28.488Z,68.61
2019-03-10T10:25:00.861Z,68.57
2019-03-10T10:27:47.359Z,68.16
2019-03-10T10:30:26.304Z,67.38
2019-03-10T10:33:10.972Z,67.67
2019-03-10T10:35:56.467Z,68.77
2019-03-10T10:38:28.001Z,68.74
2019-03-10T10:41:15.434Z,68.88
2019-03-10T10:43:45.188Z,67.11
2019-03-10T10:46:31.243Z,67.31
2019-03-10T10:49:11.990Z,66.52
2019-03-10T10:51:43.468Z,68.23
2019-03-10T10:54:22.970Z,67.19
2019-03-10T10:56:52.875Z,66.76
2019-03-10T10:59:39.111Z,65.29
2019-03-10T11:02:09.193Z,66.68
2019-03-10T11:04:38.030Z,67.00
2019-03-10T11:07:15.004Z,68.17
2019-03-10T11:09:42.521Z,69.71
2019-03-10T11:12:23.274Z,70.39
2019-03-10T11:15:02.026Z,70.15
2019-03-10T11:17:31.553Z,69.01
2019-03-10T11:19:59.140Z,68.22
2019-03-10T11:22:38.777Z,65.50
2019-03-10T11:25:25.002Z,64.53
2019-03-10T11:28:00.277Z,63.75
2019-03-10T11:30:32.705Z,64.46
2019-03-10T11:33:02.405Z,61.42
2019-03-10T11:35:31.550Z,58.82
2019-03-10T11:38:01.401Z,56.76
2019-03-10T11:40:33.412Z,60.17
2019-03-10T11:43:02.866Z,61.75
2019-03-10T11:45:38.198Z,64.36
2019-03-10T11:48:16.732Z,65.43
2019-03-10T11:50:48.985Z,66.87
2019-03-10T11:53:20.729Z,64.99
2019-03-10T11:55:49.688Z,61.15
2019-03-10T11:58:23.184Z,60.67
2019-03-10T12:01:04.782Z,60.42
2019-03-10T12:03:46.135Z,60.12
2019-03-10T12:06:17.609Z,59.57
2019-03-10T12:08:46.829Z,57.27
2019-03-10T12:11:13.748Z,57.72
2019-03-10T12:13:40.905Z,55.45
2019-03-10T12:16:08.390Z,57.61
2019-03-10T12:18:35.252Z,58.69
2019-03-10T12:21:03.218Z,60.62
2019-03-10T12:23:30.242Z,61.76
2019-03-10T12:25:57.514Z,61.62
2019-03-10T12:28:24.278Z,62.30
2019-03-10T12:30:51.467Z,60.49
2019-03-10T12:33:18.218Z,60.18
2019-03-10T12:35:45.309Z,61.79
2019-03-10T12:38:12.446Z,61.86
2019-03-10T12:40:39.241Z,62.35
2019-03-10T12:43:07.916Z,62.92
2019-03-10T12:45:34.684Z,63.73
2019-03-10T12:48:02.039Z,66.01
2019-03-10T12:50:29.410Z,66.28
2019-03-10T12:52:56.236Z,65.38
2019-03-10T12:55:23.160Z,60.46
2019-03-10T12:57:50.029Z,56.65
2019-03-10T13:00:17.074Z,52.84
2019-03-10T13:02:43.996Z,50.82
2019-03-10T13:05:14.367Z,46.02
2019-03-10T13:07:41.140Z,44.07
2019-03-10T13:10:08.279Z,45.28
2019-03-10T13:12:35.350Z,47.59
2019-03-10T13:15:06.761Z,49.48
2019-03-10T13:17:33.850Z,49.35
2019-03-10T13:20:05.118Z,49.81
2019-03-10T13:22:32.310Z,50.30
2019-03-10T13:24:59.223Z,49.43
2019-03-10T13:27:26.334Z,49.11
2019-03-10T13:29:53.283Z,50.48
2019-03-10T13:32:20.184Z,50.66
2019-03-10T13:34:46.986Z,51.06
2019-03-10T13:37:14.357Z,51.27
2019-03-10T13:39:41.303Z,49.92
2019-03-10T13:42:08.461Z,49.97
2019-03-10T13:44:35.490Z,49.58
2019-03-10T13:47:09.103Z,48.78
2019-03-10T13:49:35.099Z,48.58
2019-03-10T13:52:02.366Z,46.00
2019-03-10T13:54:29.267Z,46.13
2019-03-10T13:56:57.992Z,45.71
2019-03-10T13:59:25.239Z,46.75
2019-03-10T14:01:52.171Z,47.72
2019-03-10T14:04:19.132Z,48.78
2019-03-10T14:06:45.911Z,49.21
2019-03-10T14:09:12.893Z,49.78
2019-03-10T14:11:39.690Z,49.48
2019-03-10T14:14:09.865Z,48.67
2019-03-10T14:16:37.082Z,47.10
2019-03-10T14:19:04.331Z,47.21
2019-03-10T14:21:32.569Z,47.11
2019-03-10T14:24:00.585Z,47.18
2019-03-10T14:26:27.771Z,45.82
2019-03-10T14:28:55.145Z,42.50
2019-03-10T14:31:22.118Z,39.08
2019-03-10T14:33:51.407Z,40.38
2019-03-10T14:36:18.833Z,39.74
2019-03-10T14:38:46.545Z,39.76
2019-03-10T14:41:13.778Z,39.91
2019-03-10T14:43:40.574Z,38.88
2019-03-10T14:46:07.521Z,37.46
2019-03-10T14:48:34.451Z,38.53
2019-03-10T14:51:01.843Z,38.58
2019-03-10T14:53:28.988Z,38.25
2019-03-10T14:55:56.287Z,37.88
2019-03-10T14:58:23.637Z,39.20
2019-03-10T15:00:50.642Z,39.24
2019-03-10T15:03:17.795Z,38.64
2019-03-10T15:05:44.752Z,37.45
2019-03-10T15:08:12.001Z,34.27
2019-03-10T15:10:39.580Z,35.55
2019-03-10T15:13:06.934Z,34.30
2019-03-10T15:15:34.175Z,34.53
2019-03-10T15:18:02.974Z,34.48
2019-03-10T15:20:30.210Z,34.21
2019-03-10T15:22:57.091Z,35.02
2019-03-10T15:25:25.355Z,34.33
2019-03-10T15:27:52.247Z,34.86
2019-03-10T15:30:23.855Z,34.88
2019-03-10T15:32:51.121Z,35.47
2019-03-10T15:35:18.544Z,35.97
2019-03-10T15:37:46.111Z,36.79
2019-03-10T15:40:15.735Z,36.83
2019-03-10T15:42:43.360Z,38.10
2019-03-10T15:45:12.683Z,38.81
2019-03-10T15:47:39.866Z,39.42
2019-03-10T15:50:15.378Z,39.53
2019-03-10T15:52:42.300Z,39.66
2019-03-10T15:55:09.749Z,40.03
2019-03-10T15:57:36.676Z,40.25
2019-03-10T16:00:12.158Z,40.30
2019-03-10T16:02:39.056Z,40.59
2019-03-10T16:05:09.934Z,40.58
2019-03-10T16:07:36.906Z,40.29
2019-03-10T16:10:08.461Z,40.15
2019-03-10T16:12:35.454Z,39.80
2019-03-10T16:15:07.592Z,39.50
2019-03-10T16:17:34.672Z,38.01
2019-03-10T16:20:02.008Z,38.54
2019-03-10T16:22:29.085Z,38.12
2019-03-10T16:24:56.351Z,37.70
2019-03-10T16:27:23.135Z,38.28
2019-03-10T16:29:50.016Z,38.00
2019-03-10T16:32:16.844Z,38.36
2019-03-10T16:34:44.139Z,37.86
2019-03-10T16:37:10.976Z,38.34
2019-03-10T16:39:38.211Z,38.24
2019-03-10T16:42:05.504Z,38.57
2019-03-10T16:44:32.456Z,37.94
2019-03-10T16:46:59.310Z,38.32
2019-03-10T16:49:26.064Z,38.30
2019-03-10T16:51:53.106Z,38.51
2019-03-10T16:54:20.018Z,37.56
2019-03-10T16:56:46.859Z,38.05
2019-03-10T16:59:14.215Z,38.17
2019-03-10T17:01:41.012Z,38.15
2019-03-10T17:04:11.458Z,37.63
2019-03-10T17:06:38.522Z,37.43
2019-03-10T17:09:17.132Z,37.29
2019-03-10T17:11:46.387Z,37.14
2019-03-10T17:14:13.604Z,37.23
2019-03-10T17:16:40.413Z,37.25
2019-03-10T17:19:09.497Z,37.66
2019-03-10T17:21:38.070Z,37.76
2019-03-10T17:24:05.411Z,37.80
2019-03-10T17:26:33.797Z,37.92
2019-03-10T17:29:00.556Z,37.93
2019-03-10T17:31:27.314Z,38.37
2019-03-10T17:33:54.099Z,38.48
2019-03-10T17:36:21.410Z,38.06
2019-03-10T17:38:58.855Z,38.70
2019-03-10T17:41:26.040Z,39.02
2019-03-10T17:43:52.923Z,39.21
2019-03-10T17:46:19.711Z,39.24
2019-03-10T17:48:47.408Z,39.42
2019-03-10T17:51:14.846Z,39.69
2019-03-10T17:53:42.162Z,39.89
2019-03-10T17:56:09.021Z,40.18
2019-03-10T17:58:36.365Z,41.17
2019-03-10T18:01:03.639Z,43.84
2019-03-10T18:03:30.472Z,45.23
2019-03-10T18:05:57.715Z,45.82
2019-03-10T18:08:24.535Z,46.36
2019-03-10T18:10:53.973Z,47.45
2019-03-10T18:13:20.748Z,47.53
2019-03-10T18:15:47.850Z,47.63
2019-03-10T18:18:14.615Z,47.26
2019-03-10T18:20:43.972Z,46.94
2019-03-10T18:23:11.010Z,49.14
2019-03-10T18:25:37.953Z,56.09
2019-03-10T18:28:06.252Z,59.96
2019-03-10T18:30:33.966Z,58.80
2019-03-10T18:33:00.925Z,57.93
2019-03-10T18:35:27.944Z,57.72
2019-03-10T18:37:54.907Z,58.06
2019-03-10T18:40:23.721Z,58.19
2019-03-10T18:42:50.895Z,58.04
2019-03-10T18:45:19.191Z,58.49
2019-03-10T18:47:46.313Z,57.95
2019-03-10T18:50:23.963Z,56.68
2019-03-10T18:52:51.267Z,56.32
2019-03-10T18:55:18.454Z,55.81
2019-03-10T18:57:45.491Z,54.90
2019-03-10T19:00:25.302Z,54.91
2019-03-10T19:02:52.432Z,54.48
2019-03-10T19:05:19.510Z,54.13
2019-03-10T19:07:46.476Z,53.30
2019-03-10T19:10:16.028Z,52.58
2019-03-10T19:12:43.127Z,52.61
2019-03-10T19:15:26.851Z,51.49
2019-03-10T19:17:53.767Z,51.39
2019-03-10T19:20:21.128Z,51.14
2019-03-10T19:22:48.245Z,49.98
2019-03-10T19:25:16.281Z,48.11
2019-03-10T19:27:43.957Z,48.42
2019-03-10T19:30:16.334Z,46.96
2019-03-10T19:32:43.262Z,47.02
2019-03-10T19:35:12.116Z,46.16
2019-03-10T19:37:39.112Z,46.57
2019-03-10T19:40:17.682Z,46.19
2019-03-10T19:42:44.704Z,46.27
2019-03-10T19:45:17.191Z,45.63
2019-03-10T19:47:44.195Z,45.26
2019-03-10T19:50:23.546Z,45.15
2019-03-10T19:52:50.693Z,44.89
2019-03-10T19:55:17.626Z,45.21
2019-03-10T19:57:44.688Z,44.90
2019-03-10T20:00:16.689Z,44.83
2019-03-10T20:02:43.637Z,45.23
2019-03-10T20:05:13.477Z,45.35
2019-03-10T20:07:40.475Z,45.68
2019-03-10T20:10:19.026Z,44.99
2019-03-10T20:12:46.282Z,45.76
2019-03-10T20:15:20.285Z,45.79
2019-03-10T20:17:47.331Z,45.79
2019-03-10T20:20:18.178Z,46.22
2019-03-10T20:22:45.202Z,46.43
2019-03-10T20:25:16.915Z,46.61
2019-03-10T20:27:44.327Z,46.36
2019-03-10T20:30:17.728Z,46.54
2019-03-10T20:32:44.772Z,46.41
2019-03-10T20:35:12.059Z,45.11
2019-03-10T20:37:39.263Z,46.19
2019-03-10T20:40:16.050Z,46.14
2019-03-10T20:42:43.360Z,45.69
2019-03-10T20:45:13.116Z,45.87
2019-03-10T20:47:40.181Z,45.83
2019-03-10T20:50:16.620Z,45.47
2019-03-10T20:52:43.667Z,45.91
2019-03-10T20:55:13.203Z,45.92
2019-03-10T20:57:41.323Z,45.69
2019-03-10T21:00:20.657Z,45.44
2019-03-10T21:02:47.428Z,44.65
2019-03-10T21:05:14.696Z,44.23
2019-03-10T21:07:41.690Z,44.27
2019-03-10T21:10:15.161Z,43.86
2019-03-10T21:12:42.922Z,43.73
2019-03-10T21:15:16.189Z,43.98
2019-03-10T21:17:43.104Z,43.83
2019-03-10T21:20:13.289Z,42.67
2019-03-10T21:22:40.306Z,43.51
2019-03-10T21:25:17.780Z,42.51
2019-03-10T21:27:44.633Z,42.95
2019-03-10T21:30:18.139Z,42.36
2019-03-10T21:32:45.066Z,42.52
2019-03-10T21:35:17.463Z,42.81
2019-03-10T21:37:41.677Z,42.90
2019-03-10T21:40:15.479Z,42.72
2019-03-10T21:42:42.909Z,42.17
2019-03-10T21:45:10.089Z,42.53
2019-03-10T21:47:37.174Z,42.71
2019-03-10T21:50:14.020Z,42.80
2019-03-10T21:52:41.464Z,42.76
2019-03-10T21:55:11.518Z,42.54
2019-03-10T21:57:38.352Z,42.61
2019-03-10T22:00:12.889Z,42.66
2019-03-10T22:02:40.109Z,42.42
2019-03-10T22:05:10.563Z,42.75
2019-03-10T22:07:37.660Z,42.84
2019-03-10T22:10:11.888Z,42.93
2019-03-10T22:12:39.080Z,42.64
2019-03-10T22:15:10.400Z,42.92
2019-03-10T22:17:37.495Z,42.92
2019-03-10T22:20:11.620Z,42.84
2019-03-10T22:22:48.236Z,42.86
2019-03-10T22:25:12.984Z,42.89
2019-03-10T22:27:39.910Z,42.73
2019-03-10T22:30:20.556Z,43.04
2019-03-10T22:32:47.685Z,43.63
2019-03-10T22:35:14.845Z,43.97
2019-03-10T22:37:42.961Z,43.98
2019-03-10T22:40:12.419Z,44.13
2019-03-10T22:42:39.711Z,44.21
2019-03-10T22:45:18.709Z,44.20
2019-03-10T22:47:45.490Z,44.35
2019-03-10T22:50:15.212Z,44.30
2019-03-10T22:52:42.244Z,44.26
2019-03-10T22:55:12.395Z,44.17
2019-03-10T22:57:39.175Z,44.35
2019-03-10T23:00:22.627Z,44.38
2019-03-10T23:02:49.226Z,44.56
2019-03-10T23:05:16.020Z,43.39
2019-03-10T23:07:43.436Z,43.27
2019-03-10T23:10:14.183Z,43.46
2019-03-10T23:12:41.353Z,43.55
2019-03-10T23:15:11.226Z,43.08
2019-03-10T23:17:38.209Z,42.98
2019-03-10T23:20:10.148Z,43.07
2019-03-10T23:22:36.912Z,43.16
2019-03-10T23:25:06.333Z,43.39
2019-03-10T23:27:33.206Z,43.39
2019-03-10T23:30:01.046Z,43.63
2019-03-10T23:32:27.911Z,43.55
2019-03-10T23:34:55.197Z,43.98
2019-03-10T23:37:22.672Z,43.57
2019-03-10T23:39:49.753Z,43.96
2019-03-10T23:42:16.483Z,44.02
2019-03-10T23:44:43.651Z,43.96
2019-03-10T23:47:10.697Z,43.85
2019-03-10T23:49:38.868Z,43.91
2019-03-10T23:52:05.707Z,43.97
2019-03-10T23:54:32.828Z,44.12
2019-03-10T23:56:59.711Z,44.35
2019-03-10T23:59:28.523Z,44.37
